sensor_id;sensor_type;location;lat;lon;timestamp;P1;durP1;ratioP1;P2;durP2;ratioP2
70126;SDS011;57491;42.694;23.314;2022-10-16T00:01:05;17.55;;;9.65;;
70126;SDS011;57491;42.694;23.314;2022-10-16T00:03:34;15.10;;;9.82;;
70126;SDS011;57491;42.694;23.314;2022-10-16T00:06:01;20.55;;;9.93;;
70126;SDS011;57491;42.694;23.314;2022-10-16T00:11:01;16.88;;;9.75;;
70126;SDS011;57491;42.694;23.314;2022-10-16T00:13:30;19.35;;;9.23;;
70126;SDS011;57491;42.694;23.314;2022-10-16T00:15:58;13.73;;;10.10;;
70126;SDS011;57491;42.694;23.314;2022-10-16T00:18:27;19.15;;;10.10;;
70126;SDS011;57491;42.694;23.314;2022-10-16T00:20:55;12.95;;;8.95;;
70126;SDS011;57491;42.694;23.314;2022-10-16T00:23:27;16.60;;;9.45;;
70126;SDS011;57491;42.694;23.314;2022-10-16T00:25:56;16.73;;;8.67;;
70126;SDS011;57491;42.694;23.314;2022-10-16T00:28:24;12.68;;;8.80;;
70126;SDS011;57491;42.694;23.314;2022-10-16T00:30:52;16.98;;;9.15;;
70126;SDS011;57491;42.694;23.314;2022-10-16T00:33:19;13.60;;;8.13;;
70126;SDS011;57491;42.694;23.314;2022-10-16T00:35:46;14.20;;;9.10;;
70126;SDS011;57491;42.694;23.314;2022-10-16T00:38:14;15.57;;;8.97;;
70126;SDS011;57491;42.694;23.314;2022-10-16T00:40:41;11.57;;;8.15;;
70126;SDS011;57491;42.694;23.314;2022-10-16T00:43:13;13.18;;;8.50;;
70126;SDS011;57491;42.694;23.314;2022-10-16T00:45:41;13.00;;;8.02;;
70126;SDS011;57491;42.694;23.314;2022-10-16T00:48:10;12.57;;;8.32;;
70126;SDS011;57491;42.694;23.314;2022-10-16T00:50:40;11.82;;;8.02;;
70126;SDS011;57491;42.694;23.314;2022-10-16T00:53:09;15.95;;;8.80;;
70126;SDS011;57491;42.694;23.314;2022-10-16T00:55:38;12.43;;;7.95;;
70126;SDS011;57491;42.694;23.314;2022-10-16T00:58:05;14.25;;;8.20;;
70126;SDS011;57491;42.694;23.314;2022-10-16T01:00:34;13.27;;;7.78;;
70126;SDS011;57491;42.694;23.314;2022-10-16T01:03:01;12.40;;;8.27;;
70126;SDS011;57491;42.694;23.314;2022-10-16T01:05:30;14.60;;;8.68;;
70126;SDS011;57491;42.694;23.314;2022-10-16T01:08:05;19.98;;;10.55;;
70126;SDS011;57491;42.694;23.314;2022-10-16T01:10:39;16.33;;;9.05;;
70126;SDS011;57491;42.694;23.314;2022-10-16T01:13:14;13.35;;;8.35;;
70126;SDS011;57491;42.694;23.314;2022-10-16T01:15:48;12.02;;;8.05;;
70126;SDS011;57491;42.694;23.314;2022-10-16T01:18:24;15.63;;;8.63;;
70126;SDS011;57491;42.694;23.314;2022-10-16T01:20:57;11.55;;;7.60;;
70126;SDS011;57491;42.694;23.314;2022-10-16T01:23:34;15.93;;;7.97;;
70126;SDS011;57491;42.694;23.314;2022-10-16T01:26:20;15.98;;;8.98;;
70126;SDS011;57491;42.694;23.314;2022-10-16T01:29:01;16.30;;;8.57;;
70126;SDS011;57491;42.694;23.314;2022-10-16T01:31:35;13.80;;;8.00;;
70126;SDS011;57491;42.694;23.314;2022-10-16T01:34:06;12.32;;;7.65;;
70126;SDS011;57491;42.694;23.314;2022-10-16T01:36:40;12.73;;;8.50;;
70126;SDS011;57491;42.694;23.314;2022-10-16T01:39:11;11.88;;;8.57;;
70126;SDS011;57491;42.694;23.314;2022-10-16T01:41:41;13.43;;;8.27;;
70126;SDS011;57491;42.694;23.314;2022-10-16T01:44:14;9.43;;;7.45;;
70126;SDS011;57491;42.694;23.314;2022-10-16T01:46:46;15.32;;;8.00;;
70126;SDS011;57491;42.694;23.314;2022-10-16T01:49:16;13.40;;;8.52;;
70126;SDS011;57491;42.694;23.314;2022-10-16T01:51:46;12.52;;;8.32;;
70126;SDS011;57491;42.694;23.314;2022-10-16T01:54:17;15.55;;;8.45;;
70126;SDS011;57491;42.694;23.314;2022-10-16T01:56:46;16.60;;;8.20;;
70126;SDS011;57491;42.694;23.314;2022-10-16T01:59:17;11.85;;;7.63;;
70126;SDS011;57491;42.694;23.314;2022-10-16T02:01:47;10.93;;;7.30;;
70126;SDS011;57491;42.694;23.314;2022-10-16T02:04:19;12.52;;;8.00;;
70126;SDS011;57491;42.694;23.314;2022-10-16T02:06:51;12.70;;;8.25;;
70126;SDS011;57491;42.694;23.314;2022-10-16T02:09:19;14.13;;;8.60;;
70126;SDS011;57491;42.694;23.314;2022-10-16T02:11:46;13.73;;;7.90;;
70126;SDS011;57491;42.694;23.314;2022-10-16T02:14:14;13.60;;;8.30;;
70126;SDS011;57491;42.694;23.314;2022-10-16T02:16:44;17.15;;;8.13;;
70126;SDS011;57491;42.694;23.314;2022-10-16T02:19:13;11.07;;;7.50;;
70126;SDS011;57491;42.694;23.314;2022-10-16T02:21:43;13.68;;;8.70;;
70126;SDS011;57491;42.694;23.314;2022-10-16T02:24:17;11.68;;;8.30;;
70126;SDS011;57491;42.694;23.314;2022-10-16T02:26:50;16.77;;;8.18;;
70126;SDS011;57491;42.694;23.314;2022-10-16T02:29:22;13.63;;;7.13;;
70126;SDS011;57491;42.694;23.314;2022-10-16T02:31:54;11.48;;;7.00;;
70126;SDS011;57491;42.694;23.314;2022-10-16T02:34:24;9.50;;;7.10;;
70126;SDS011;57491;42.694;23.314;2022-10-16T02:36:53;10.15;;;5.90;;
70126;SDS011;57491;42.694;23.314;2022-10-16T02:39:23;10.65;;;6.25;;
70126;SDS011;57491;42.694;23.314;2022-10-16T02:41:51;11.63;;;7.22;;
70126;SDS011;57491;42.694;23.314;2022-10-16T02:44:18;9.93;;;6.72;;
70126;SDS011;57491;42.694;23.314;2022-10-16T02:46:45;9.88;;;7.00;;
70126;SDS011;57491;42.694;23.314;2022-10-16T02:49:13;11.32;;;6.80;;
70126;SDS011;57491;42.694;23.314;2022-10-16T02:51:41;11.07;;;7.68;;
70126;SDS011;57491;42.694;23.314;2022-10-16T02:54:08;12.30;;;7.60;;
70126;SDS011;57491;42.694;23.314;2022-10-16T02:56:35;10.65;;;7.70;;
70126;SDS011;57491;42.694;23.314;2022-10-16T02:59:02;12.50;;;7.05;;
70126;SDS011;57491;42.694;23.314;2022-10-16T03:01:29;13.85;;;8.55;;
70126;SDS011;57491;42.694;23.314;2022-10-16T03:03:55;13.43;;;7.93;;
70126;SDS011;57491;42.694;23.314;2022-10-16T03:06:24;15.73;;;8.60;;
70126;SDS011;57491;42.694;23.314;2022-10-16T03:08:51;14.95;;;8.45;;
70126;SDS011;57491;42.694;23.314;2022-10-16T03:11:18;14.07;;;8.45;;
70126;SDS011;57491;42.694;23.314;2022-10-16T03:13:45;16.63;;;9.65;;
70126;SDS011;57491;42.694;23.314;2022-10-16T03:16:12;13.82;;;8.73;;
70126;SDS011;57491;42.694;23.314;2022-10-16T03:18:39;15.07;;;8.60;;
70126;SDS011;57491;42.694;23.314;2022-10-16T03:21:06;13.25;;;8.73;;
70126;SDS011;57491;42.694;23.314;2022-10-16T03:23:35;12.63;;;8.90;;
70126;SDS011;57491;42.694;23.314;2022-10-16T03:26:02;18.75;;;9.98;;
70126;SDS011;57491;42.694;23.314;2022-10-16T03:28:29;11.93;;;8.07;;
70126;SDS011;57491;42.694;23.314;2022-10-16T03:30:56;17.83;;;9.32;;
70126;SDS011;57491;42.694;23.314;2022-10-16T03:33:23;14.15;;;9.25;;
70126;SDS011;57491;42.694;23.314;2022-10-16T03:35:53;14.93;;;11.13;;
70126;SDS011;57491;42.694;23.314;2022-10-16T03:38:21;17.45;;;10.00;;
70126;SDS011;57491;42.694;23.314;2022-10-16T03:40:50;13.60;;;9.27;;
70126;SDS011;57491;42.694;23.314;2022-10-16T03:43:17;19.95;;;9.50;;
70126;SDS011;57491;42.694;23.314;2022-10-16T03:45:44;13.35;;;9.18;;
70126;SDS011;57491;42.694;23.314;2022-10-16T03:48:11;15.40;;;9.98;;
70126;SDS011;57491;42.694;23.314;2022-10-16T03:50:38;12.90;;;9.90;;
70126;SDS011;57491;42.694;23.314;2022-10-16T03:53:05;15.75;;;8.32;;
70126;SDS011;57491;42.694;23.314;2022-10-16T03:55:32;15.45;;;8.93;;
70126;SDS011;57491;42.694;23.314;2022-10-16T03:58:00;14.60;;;9.13;;
70126;SDS011;57491;42.694;23.314;2022-10-16T04:00:28;16.50;;;9.82;;
70126;SDS011;57491;42.694;23.314;2022-10-16T04:02:55;17.05;;;9.48;;
70126;SDS011;57491;42.694;23.314;2022-10-16T04:05:22;18.52;;;9.23;;
70126;SDS011;57491;42.694;23.314;2022-10-16T04:07:49;14.43;;;9.07;;
70126;SDS011;57491;42.694;23.314;2022-10-16T04:10:16;13.18;;;9.20;;
70126;SDS011;57491;42.694;23.314;2022-10-16T04:12:43;15.52;;;9.73;;
70126;SDS011;57491;42.694;23.314;2022-10-16T04:15:11;19.10;;;9.73;;
70126;SDS011;57491;42.694;23.314;2022-10-16T04:17:38;17.77;;;9.90;;
70126;SDS011;57491;42.694;23.314;2022-10-16T04:20:06;12.88;;;9.50;;
70126;SDS011;57491;42.694;23.314;2022-10-16T04:22:33;20.60;;;10.35;;
70126;SDS011;57491;42.694;23.314;2022-10-16T04:25:00;18.60;;;10.82;;
70126;SDS011;57491;42.694;23.314;2022-10-16T04:27:27;17.63;;;10.73;;
70126;SDS011;57491;42.694;23.314;2022-10-16T04:29:56;14.63;;;9.70;;
70126;SDS011;57491;42.694;23.314;2022-10-16T04:32:25;14.40;;;10.13;;
70126;SDS011;57491;42.694;23.314;2022-10-16T04:34:53;16.45;;;9.52;;
70126;SDS011;57491;42.694;23.314;2022-10-16T04:37:23;16.27;;;10.38;;
70126;SDS011;57491;42.694;23.314;2022-10-16T04:39:50;15.55;;;10.48;;
70126;SDS011;57491;42.694;23.314;2022-10-16T04:42:17;21.00;;;9.87;;
70126;SDS011;57491;42.694;23.314;2022-10-16T04:44:44;17.40;;;10.13;;
70126;SDS011;57491;42.694;23.314;2022-10-16T04:47:11;16.52;;;10.60;;
70126;SDS011;57491;42.694;23.314;2022-10-16T04:49:40;16.98;;;10.32;;
70126;SDS011;57491;42.694;23.314;2022-10-16T04:52:07;16.05;;;10.13;;
70126;SDS011;57491;42.694;23.314;2022-10-16T04:54:35;20.80;;;11.05;;
70126;SDS011;57491;42.694;23.314;2022-10-16T04:57:02;18.35;;;11.48;;
70126;SDS011;57491;42.694;23.314;2022-10-16T04:59:30;14.30;;;9.35;;
70126;SDS011;57491;42.694;23.314;2022-10-16T05:01:57;20.60;;;10.03;;
70126;SDS011;57491;42.694;23.314;2022-10-16T05:04:24;17.45;;;9.60;;
70126;SDS011;57491;42.694;23.314;2022-10-16T05:06:52;13.70;;;8.88;;
70126;SDS011;57491;42.694;23.314;2022-10-16T05:09:20;13.50;;;8.43;;
70126;SDS011;57491;42.694;23.314;2022-10-16T05:11:47;13.27;;;8.60;;
70126;SDS011;57491;42.694;23.314;2022-10-16T05:14:14;16.40;;;8.73;;
70126;SDS011;57491;42.694;23.314;2022-10-16T05:16:41;16.20;;;8.82;;
70126;SDS011;57491;42.694;23.314;2022-10-16T05:19:08;12.73;;;8.18;;
70126;SDS011;57491;42.694;23.314;2022-10-16T05:21:35;14.00;;;7.78;;
70126;SDS011;57491;42.694;23.314;2022-10-16T05:24:04;15.85;;;9.65;;
70126;SDS011;57491;42.694;23.314;2022-10-16T05:26:31;13.15;;;8.93;;
70126;SDS011;57491;42.694;23.314;2022-10-16T05:28:58;15.32;;;7.55;;
70126;SDS011;57491;42.694;23.314;2022-10-16T05:31:25;12.05;;;8.15;;
70126;SDS011;57491;42.694;23.314;2022-10-16T05:33:52;13.57;;;7.65;;
70126;SDS011;57491;42.694;23.314;2022-10-16T05:36:24;15.60;;;7.47;;
70126;SDS011;57491;42.694;23.314;2022-10-16T05:38:51;14.07;;;7.32;;
70126;SDS011;57491;42.694;23.314;2022-10-16T05:41:19;16.40;;;7.90;;
70126;SDS011;57491;42.694;23.314;2022-10-16T05:43:47;18.35;;;7.72;;
70126;SDS011;57491;42.694;23.314;2022-10-16T05:46:14;14.67;;;9.10;;
70126;SDS011;57491;42.694;23.314;2022-10-16T05:48:42;11.75;;;7.60;;
70126;SDS011;57491;42.694;23.314;2022-10-16T05:51:10;13.15;;;7.88;;
70126;SDS011;57491;42.694;23.314;2022-10-16T05:53:38;15.57;;;8.68;;
70126;SDS011;57491;42.694;23.314;2022-10-16T05:56:06;17.60;;;9.80;;
70126;SDS011;57491;42.694;23.314;2022-10-16T05:58:38;12.05;;;8.15;;
70126;SDS011;57491;42.694;23.314;2022-10-16T06:01:07;16.20;;;7.95;;
70126;SDS011;57491;42.694;23.314;2022-10-16T06:03:37;14.25;;;8.25;;
70126;SDS011;57491;42.694;23.314;2022-10-16T06:06:08;14.63;;;8.07;;
70126;SDS011;57491;42.694;23.314;2022-10-16T06:08:36;10.88;;;7.93;;
70126;SDS011;57491;42.694;23.314;2022-10-16T06:11:04;14.07;;;8.45;;
70126;SDS011;57491;42.694;23.314;2022-10-16T06:13:32;14.82;;;8.57;;
70126;SDS011;57491;42.694;23.314;2022-10-16T06:16:01;19.07;;;8.27;;
70126;SDS011;57491;42.694;23.314;2022-10-16T06:18:29;14.13;;;8.23;;
70126;SDS011;57491;42.694;23.314;2022-10-16T06:20:59;13.27;;;8.43;;
70126;SDS011;57491;42.694;23.314;2022-10-16T06:23:34;12.50;;;8.43;;
70126;SDS011;57491;42.694;23.314;2022-10-16T06:26:04;16.58;;;8.88;;
70126;SDS011;57491;42.694;23.314;2022-10-16T06:28:32;11.63;;;8.10;;
70126;SDS011;57491;42.694;23.314;2022-10-16T06:31:01;12.30;;;8.02;;
70126;SDS011;57491;42.694;23.314;2022-10-16T06:33:29;11.27;;;8.85;;
70126;SDS011;57491;42.694;23.314;2022-10-16T06:36:00;13.52;;;8.95;;
70126;SDS011;57491;42.694;23.314;2022-10-16T06:38:29;15.63;;;10.25;;
70126;SDS011;57491;42.694;23.314;2022-10-16T06:40:56;15.65;;;9.02;;
70126;SDS011;57491;42.694;23.314;2022-10-16T06:43:23;14.30;;;8.35;;
70126;SDS011;57491;42.694;23.314;2022-10-16T06:45:51;12.73;;;8.10;;
70126;SDS011;57491;42.694;23.314;2022-10-16T06:48:20;12.45;;;8.77;;
70126;SDS011;57491;42.694;23.314;2022-10-16T06:50:57;15.85;;;9.90;;
70126;SDS011;57491;42.694;23.314;2022-10-16T06:53:26;13.52;;;10.52;;
70126;SDS011;57491;42.694;23.314;2022-10-16T06:55:54;12.43;;;10.25;;
70126;SDS011;57491;42.694;23.314;2022-10-16T06:58:22;16.02;;;11.00;;
70126;SDS011;57491;42.694;23.314;2022-10-16T07:00:49;21.85;;;11.55;;
70126;SDS011;57491;42.694;23.314;2022-10-16T07:03:23;15.18;;;10.43;;
70126;SDS011;57491;42.694;23.314;2022-10-16T07:05:50;17.00;;;10.07;;
70126;SDS011;57491;42.694;23.314;2022-10-16T07:08:17;14.87;;;10.17;;
70126;SDS011;57491;42.694;23.314;2022-10-16T07:10:45;24.75;;;11.18;;
70126;SDS011;57491;42.694;23.314;2022-10-16T07:13:12;14.97;;;10.13;;
70126;SDS011;57491;42.694;23.314;2022-10-16T07:15:39;13.52;;;8.82;;
70126;SDS011;57491;42.694;23.314;2022-10-16T07:18:07;15.32;;;9.40;;
70126;SDS011;57491;42.694;23.314;2022-10-16T07:20:36;12.93;;;9.80;;
70126;SDS011;57491;42.694;23.314;2022-10-16T07:23:03;13.05;;;9.73;;
70126;SDS011;57491;42.694;23.314;2022-10-16T07:25:30;15.90;;;9.57;;
70126;SDS011;57491;42.694;23.314;2022-10-16T07:27:58;15.20;;;10.70;;
70126;SDS011;57491;42.694;23.314;2022-10-16T07:30:25;15.70;;;10.97;;
70126;SDS011;57491;42.694;23.314;2022-10-16T07:32:52;19.40;;;11.57;;
70126;SDS011;57491;42.694;23.314;2022-10-16T07:35:19;16.57;;;10.47;;
70126;SDS011;57491;42.694;23.314;2022-10-16T07:37:47;16.17;;;11.47;;
70126;SDS011;57491;42.694;23.314;2022-10-16T07:40:14;16.33;;;11.00;;
70126;SDS011;57491;42.694;23.314;2022-10-16T07:42:41;12.27;;;10.63;;
70126;SDS011;57491;42.694;23.314;2022-10-16T07:45:09;19.80;;;12.07;;
70126;SDS011;57491;42.694;23.314;2022-10-16T07:47:36;14.52;;;11.23;;
70126;SDS011;57491;42.694;23.314;2022-10-16T07:50:03;12.93;;;11.55;;
70126;SDS011;57491;42.694;23.314;2022-10-16T07:52:31;14.93;;;10.30;;
70126;SDS011;57491;42.694;23.314;2022-10-16T07:54:59;12.37;;;9.10;;
70126;SDS011;57491;42.694;23.314;2022-10-16T07:57:27;16.08;;;10.20;;
70126;SDS011;57491;42.694;23.314;2022-10-16T07:59:54;16.90;;;10.23;;
70126;SDS011;57491;42.694;23.314;2022-10-16T08:02:21;14.40;;;10.40;;
70126;SDS011;57491;42.694;23.314;2022-10-16T08:04:48;11.32;;;8.73;;
70126;SDS011;57491;42.694;23.314;2022-10-16T08:07:15;16.33;;;9.80;;
70126;SDS011;57491;42.694;23.314;2022-10-16T08:09:42;15.63;;;9.73;;
70126;SDS011;57491;42.694;23.314;2022-10-16T08:12:11;10.67;;;7.83;;
70126;SDS011;57491;42.694;23.314;2022-10-16T08:14:38;12.52;;;8.05;;
70126;SDS011;57491;42.694;23.314;2022-10-16T08:17:05;9.23;;;7.63;;
70126;SDS011;57491;42.694;23.314;2022-10-16T08:19:32;8.32;;;7.43;;
70126;SDS011;57491;42.694;23.314;2022-10-16T08:24:26;8.38;;;6.78;;
70126;SDS011;57491;42.694;23.314;2022-10-16T08:26:56;8.98;;;7.18;;
70126;SDS011;57491;42.694;23.314;2022-10-16T08:29:24;9.25;;;7.30;;
70126;SDS011;57491;42.694;23.314;2022-10-16T08:31:51;7.10;;;6.35;;
70126;SDS011;57491;42.694;23.314;2022-10-16T08:34:18;9.60;;;6.60;;
70126;SDS011;57491;42.694;23.314;2022-10-16T08:36:46;7.60;;;6.38;;
70126;SDS011;57491;42.694;23.314;2022-10-16T08:39:13;6.50;;;5.65;;
70126;SDS011;57491;42.694;23.314;2022-10-16T08:42:04;8.30;;;6.95;;
70126;SDS011;57491;42.694;23.314;2022-10-16T08:44:47;7.47;;;6.28;;
70126;SDS011;57491;42.694;23.314;2022-10-16T08:47:35;8.65;;;7.30;;
70126;SDS011;57491;42.694;23.314;2022-10-16T08:50:12;11.55;;;6.25;;
70126;SDS011;57491;42.694;23.314;2022-10-16T08:52:41;12.32;;;6.35;;
70126;SDS011;57491;42.694;23.314;2022-10-16T08:55:17;6.53;;;5.90;;
70126;SDS011;57491;42.694;23.314;2022-10-16T08:57:54;9.15;;;5.57;;
70126;SDS011;57491;42.694;23.314;2022-10-16T09:00:23;5.45;;;4.95;;
70126;SDS011;57491;42.694;23.314;2022-10-16T09:02:52;5.85;;;4.97;;
70126;SDS011;57491;42.694;23.314;2022-10-16T09:05:24;5.50;;;4.93;;
70126;SDS011;57491;42.694;23.314;2022-10-16T09:08:05;7.13;;;3.67;;
70126;SDS011;57491;42.694;23.314;2022-10-16T09:10:43;5.13;;;3.83;;
70126;SDS011;57491;42.694;23.314;2022-10-16T09:13:22;4.35;;;3.90;;
70126;SDS011;57491;42.694;23.314;2022-10-16T09:15:58;6.55;;;4.07;;
70126;SDS011;57491;42.694;23.314;2022-10-16T09:18:35;5.20;;;3.88;;
70126;SDS011;57491;42.694;23.314;2022-10-16T09:21:08;8.65;;;4.30;;
70126;SDS011;57491;42.694;23.314;2022-10-16T09:23:41;5.75;;;3.60;;
70126;SDS011;57491;42.694;23.314;2022-10-16T09:26:09;5.78;;;4.43;;
70126;SDS011;57491;42.694;23.314;2022-10-16T09:28:39;4.88;;;3.90;;
70126;SDS011;57491;42.694;23.314;2022-10-16T09:33:39;7.28;;;3.90;;
70126;SDS011;57491;42.694;23.314;2022-10-16T09:36:08;6.13;;;4.35;;
70126;SDS011;57491;42.694;23.314;2022-10-16T09:38:36;6.28;;;3.53;;
70126;SDS011;57491;42.694;23.314;2022-10-16T09:43:40;7.18;;;3.70;;
70126;SDS011;57491;42.694;23.314;2022-10-16T09:46:21;4.82;;;3.90;;
70126;SDS011;57491;42.694;23.314;2022-10-16T09:48:53;4.88;;;3.67;;
70126;SDS011;57491;42.694;23.314;2022-10-16T09:51:26;6.10;;;4.28;;
70126;SDS011;57491;42.694;23.314;2022-10-16T09:53:55;5.22;;;4.25;;
70126;SDS011;57491;42.694;23.314;2022-10-16T09:56:25;5.88;;;4.20;;
70126;SDS011;57491;42.694;23.314;2022-10-16T09:58:53;7.80;;;4.55;;
70126;SDS011;57491;42.694;23.314;2022-10-16T10:01:24;5.10;;;3.92;;
70126;SDS011;57491;42.694;23.314;2022-10-16T10:03:56;5.90;;;4.18;;
70126;SDS011;57491;42.694;23.314;2022-10-16T10:06:28;5.78;;;4.10;;
70126;SDS011;57491;42.694;23.314;2022-10-16T10:08:58;7.03;;;4.35;;
70126;SDS011;57491;42.694;23.314;2022-10-16T10:11:45;6.13;;;4.10;;
70126;SDS011;57491;42.694;23.314;2022-10-16T10:14:16;4.73;;;4.30;;
70126;SDS011;57491;42.694;23.314;2022-10-16T10:16:48;6.72;;;4.32;;
70126;SDS011;57491;42.694;23.314;2022-10-16T10:19:17;5.03;;;4.13;;
70126;SDS011;57491;42.694;23.314;2022-10-16T10:21:45;4.22;;;3.83;;
70126;SDS011;57491;42.694;23.314;2022-10-16T10:24:13;4.25;;;3.90;;
70126;SDS011;57491;42.694;23.314;2022-10-16T10:26:44;5.90;;;4.13;;
70126;SDS011;57491;42.694;23.314;2022-10-16T10:29:19;5.15;;;3.85;;
70126;SDS011;57491;42.694;23.314;2022-10-16T10:32:01;7.70;;;4.93;;
70126;SDS011;57491;42.694;23.314;2022-10-16T10:34:39;6.10;;;5.20;;
70126;SDS011;57491;42.694;23.314;2022-10-16T10:37:17;6.97;;;4.63;;
70126;SDS011;57491;42.694;23.314;2022-10-16T10:39:58;5.82;;;4.28;;
70126;SDS011;57491;42.694;23.314;2022-10-16T10:42:36;7.57;;;5.30;;
70126;SDS011;57491;42.694;23.314;2022-10-16T10:45:15;4.65;;;4.15;;
70126;SDS011;57491;42.694;23.314;2022-10-16T10:47:50;6.78;;;4.43;;
70126;SDS011;57491;42.694;23.314;2022-10-16T10:50:26;5.30;;;3.88;;
70126;SDS011;57491;42.694;23.314;2022-10-16T10:53:04;7.77;;;4.57;;
70126;SDS011;57491;42.694;23.314;2022-10-16T10:55:44;9.50;;;7.03;;
70126;SDS011;57491;42.694;23.314;2022-10-16T10:58:24;4.95;;;4.30;;
70126;SDS011;57491;42.694;23.314;2022-10-16T11:01:06;6.32;;;5.32;;
70126;SDS011;57491;42.694;23.314;2022-10-16T11:03:43;4.20;;;3.80;;
70126;SDS011;57491;42.694;23.314;2022-10-16T11:06:23;4.38;;;3.97;;
70126;SDS011;57491;42.694;23.314;2022-10-16T11:08:54;4.38;;;3.95;;
70126;SDS011;57491;42.694;23.314;2022-10-16T11:11:29;7.55;;;4.20;;
70126;SDS011;57491;42.694;23.314;2022-10-16T11:14:03;5.45;;;4.30;;
70126;SDS011;57491;42.694;23.314;2022-10-16T11:16:39;6.20;;;4.20;;
70126;SDS011;57491;42.694;23.314;2022-10-16T11:19:13;6.28;;;4.45;;
70126;SDS011;57491;42.694;23.314;2022-10-16T11:21:54;8.60;;;4.60;;
70126;SDS011;57491;42.694;23.314;2022-10-16T11:24:30;4.70;;;4.30;;
70126;SDS011;57491;42.694;23.314;2022-10-16T11:27:08;7.68;;;5.70;;
70126;SDS011;57491;42.694;23.314;2022-10-16T11:29:44;4.53;;;4.07;;
70126;SDS011;57491;42.694;23.314;2022-10-16T11:32:18;4.30;;;3.90;;
70126;SDS011;57491;42.694;23.314;2022-10-16T11:34:52;4.85;;;3.83;;
70126;SDS011;57491;42.694;23.314;2022-10-16T11:37:24;8.35;;;4.85;;
70126;SDS011;57491;42.694;23.314;2022-10-16T11:39:57;7.13;;;4.90;;
70126;SDS011;57491;42.694;23.314;2022-10-16T11:42:39;6.38;;;4.47;;
70126;SDS011;57491;42.694;23.314;2022-10-16T11:45:13;4.60;;;4.22;;
70126;SDS011;57491;42.694;23.314;2022-10-16T11:47:51;6.65;;;4.38;;
70126;SDS011;57491;42.694;23.314;2022-10-16T11:50:29;6.30;;;4.53;;
70126;SDS011;57491;42.694;23.314;2022-10-16T11:53:02;3.85;;;3.55;;
70126;SDS011;57491;42.694;23.314;2022-10-16T11:55:40;4.93;;;4.07;;
70126;SDS011;57491;42.694;23.314;2022-10-16T11:58:09;8.05;;;5.90;;
70126;SDS011;57491;42.694;23.314;2022-10-16T12:03:15;10.60;;;7.13;;
70126;SDS011;57491;42.694;23.314;2022-10-16T12:05:55;8.07;;;5.47;;
70126;SDS011;57491;42.694;23.314;2022-10-16T12:08:33;6.63;;;4.63;;
70126;SDS011;57491;42.694;23.314;2022-10-16T12:11:08;5.13;;;4.72;;
70126;SDS011;57491;42.694;23.314;2022-10-16T12:13:37;4.85;;;4.32;;
70126;SDS011;57491;42.694;23.314;2022-10-16T12:16:07;6.70;;;5.47;;
70126;SDS011;57491;42.694;23.314;2022-10-16T12:18:47;8.02;;;4.85;;
70126;SDS011;57491;42.694;23.314;2022-10-16T12:21:16;6.47;;;4.53;;
70126;SDS011;57491;42.694;23.314;2022-10-16T12:23:47;6.05;;;4.80;;
70126;SDS011;57491;42.694;23.314;2022-10-16T12:26:23;9.32;;;5.15;;
70126;SDS011;57491;42.694;23.314;2022-10-16T12:28:51;5.32;;;4.55;;
70126;SDS011;57491;42.694;23.314;2022-10-16T12:31:19;7.85;;;4.68;;
70126;SDS011;57491;42.694;23.314;2022-10-16T12:33:56;4.47;;;4.05;;
70126;SDS011;57491;42.694;23.314;2022-10-16T12:36:28;4.53;;;4.07;;
70126;SDS011;57491;42.694;23.314;2022-10-16T12:38:59;4.72;;;3.90;;
70126;SDS011;57491;42.694;23.314;2022-10-16T12:41:28;7.20;;;4.30;;
70126;SDS011;57491;42.694;23.314;2022-10-16T12:43:57;6.60;;;4.68;;
70126;SDS011;57491;42.694;23.314;2022-10-16T12:46:34;6.47;;;4.97;;
70126;SDS011;57491;42.694;23.314;2022-10-16T12:49:06;10.57;;;9.32;;
70126;SDS011;57491;42.694;23.314;2022-10-16T12:51:48;8.77;;;7.15;;
70126;SDS011;57491;42.694;23.314;2022-10-16T12:54:15;6.75;;;5.13;;
70126;SDS011;57491;42.694;23.314;2022-10-16T12:56:48;6.50;;;5.78;;
70126;SDS011;57491;42.694;23.314;2022-10-16T12:59:28;4.70;;;4.13;;
70126;SDS011;57491;42.694;23.314;2022-10-16T13:02:11;4.68;;;4.18;;
70126;SDS011;57491;42.694;23.314;2022-10-16T13:04:55;4.53;;;4.22;;
70126;SDS011;57491;42.694;23.314;2022-10-16T13:07:43;4.55;;;4.13;;
70126;SDS011;57491;42.694;23.314;2022-10-16T13:10:20;6.53;;;4.20;;
70126;SDS011;57491;42.694;23.314;2022-10-16T13:12:57;7.55;;;4.90;;
70126;SDS011;57491;42.694;23.314;2022-10-16T13:15:47;7.20;;;6.35;;
70126;SDS011;57491;42.694;23.314;2022-10-16T13:18:25;9.25;;;6.45;;
70126;SDS011;57491;42.694;23.314;2022-10-16T13:21:00;6.45;;;4.45;;
70126;SDS011;57491;42.694;23.314;2022-10-16T13:23:42;6.32;;;3.80;;
70126;SDS011;57491;42.694;23.314;2022-10-16T13:26:22;4.13;;;3.72;;
70126;SDS011;57491;42.694;23.314;2022-10-16T13:28:58;7.93;;;3.72;;
70126;SDS011;57491;42.694;23.314;2022-10-16T13:31:26;5.45;;;4.03;;
70126;SDS011;57491;42.694;23.314;2022-10-16T13:33:55;8.75;;;3.55;;
70126;SDS011;57491;42.694;23.314;2022-10-16T13:36:26;5.28;;;3.60;;
70126;SDS011;57491;42.694;23.314;2022-10-16T13:39:06;6.13;;;3.67;;
70126;SDS011;57491;42.694;23.314;2022-10-16T13:41:38;5.45;;;3.67;;
70126;SDS011;57491;42.694;23.314;2022-10-16T13:44:05;7.55;;;5.03;;
70126;SDS011;57491;42.694;23.314;2022-10-16T13:46:40;6.45;;;3.72;;
70126;SDS011;57491;42.694;23.314;2022-10-16T13:49:12;10.80;;;3.40;;
70126;SDS011;57491;42.694;23.314;2022-10-16T13:51:40;5.03;;;2.92;;
70126;SDS011;57491;42.694;23.314;2022-10-16T13:54:10;12.90;;;3.75;;
70126;SDS011;57491;42.694;23.314;2022-10-16T13:56:38;4.05;;;3.17;;
70126;SDS011;57491;42.694;23.314;2022-10-16T13:59:20;4.43;;;2.92;;
70126;SDS011;57491;42.694;23.314;2022-10-16T14:01:50;4.88;;;3.45;;
70126;SDS011;57491;42.694;23.314;2022-10-16T14:04:20;3.90;;;2.88;;
70126;SDS011;57491;42.694;23.314;2022-10-16T14:06:48;3.85;;;2.97;;
70126;SDS011;57491;42.694;23.314;2022-10-16T14:09:21;4.40;;;3.42;;
70126;SDS011;57491;42.694;23.314;2022-10-16T14:11:50;3.60;;;2.85;;
70126;SDS011;57491;42.694;23.314;2022-10-16T14:14:20;4.35;;;3.92;;
70126;SDS011;57491;42.694;23.314;2022-10-16T14:19:15;3.80;;;2.90;;
70126;SDS011;57491;42.694;23.314;2022-10-16T14:21:47;11.75;;;3.97;;
70126;SDS011;57491;42.694;23.314;2022-10-16T14:24:24;4.15;;;2.92;;
70126;SDS011;57491;42.694;23.314;2022-10-16T14:26:53;3.25;;;2.60;;
70126;SDS011;57491;42.694;23.314;2022-10-16T14:29:22;5.72;;;2.72;;
70126;SDS011;57491;42.694;23.314;2022-10-16T14:31:56;6.20;;;3.17;;
70126;SDS011;57491;42.694;23.314;2022-10-16T14:34:25;5.03;;;3.08;;
70126;SDS011;57491;42.694;23.314;2022-10-16T14:36:54;5.47;;;3.35;;
70126;SDS011;57491;42.694;23.314;2022-10-16T14:39:23;4.60;;;3.35;;
70126;SDS011;57491;42.694;23.314;2022-10-16T14:41:52;7.20;;;3.10;;
70126;SDS011;57491;42.694;23.314;2022-10-16T14:44:27;6.03;;;3.60;;
70126;SDS011;57491;42.694;23.314;2022-10-16T14:46:58;8.95;;;3.20;;
70126;SDS011;57491;42.694;23.314;2022-10-16T14:49:33;5.50;;;3.10;;
70126;SDS011;57491;42.694;23.314;2022-10-16T14:52:01;7.78;;;3.53;;
70126;SDS011;57491;42.694;23.314;2022-10-16T14:54:29;4.22;;;2.95;;
70126;SDS011;57491;42.694;23.314;2022-10-16T14:56:57;6.45;;;3.33;;
70126;SDS011;57491;42.694;23.314;2022-10-16T14:59:27;10.23;;;3.70;;
70126;SDS011;57491;42.694;23.314;2022-10-16T15:01:57;8.40;;;3.45;;